sensor_id;sensor_type;location;lat;lon;timestamp;pressure;altitude;pressure_sealevel;temperature;humidity
36234;BME280;43467;50.890;5.982;2023-05-03T00:00:10;101347.22;;;11.05;53.89
36234;BME280;43467;50.890;5.982;2023-05-03T00:02:37;101341.94;;;11.05;53.72
36234;BME280;43467;50.890;5.982;2023-05-03T00:05:04;101338.47;;;11.03;53.81
36234;BME280;43467;50.890;5.982;2023-05-03T00:07:30;101347.38;;;11.00;54.36
36234;BME280;43467;50.890;5.982;2023-05-03T00:09:55;101346.59;;;10.97;54.27
36234;BME280;43467;50.890;5.982;2023-05-03T00:12:21;101352.69;;;11.00;53.90
36234;BME280;43467;50.890;5.982;2023-05-03T00:14:46;101352.59;;;11.03;53.98
36234;BME280;43467;50.890;5.982;2023-05-03T00:17:12;101356.38;;;10.95;54.41
36234;BME280;43467;50.890;5.982;2023-05-03T00:19:37;101352.09;;;10.91;54.48
36234;BME280;43467;50.890;5.982;2023-05-03T00:22:04;101353.75;;;10.93;54.60
36234;BME280;43467;50.890;5.982;2023-05-03T00:24:29;101353.13;;;10.85;54.58
36234;BME280;43467;50.890;5.982;2023-05-03T00:26:55;101344.50;;;10.79;54.65
36234;BME280;43467;50.890;5.982;2023-05-03T00:29:20;101347.13;;;10.79;54.39
36234;BME280;43467;50.890;5.982;2023-05-03T00:31:47;101341.13;;;10.72;55.19
36234;BME280;43467;50.890;5.982;2023-05-03T00:34:12;101349.13;;;10.70;55.04
36234;BME280;43467;50.890;5.982;2023-05-03T00:36:38;101349.13;;;10.70;55.32
36234;BME280;43467;50.890;5.982;2023-05-03T00:39:03;101347.50;;;10.66;54.81
36234;BME280;43467;50.890;5.982;2023-05-03T00:41:28;101344.88;;;10.65;55.11
36234;BME280;43467;50.890;5.982;2023-05-03T00:43:54;101345.84;;;10.62;54.79
36234;BME280;43467;50.890;5.982;2023-05-03T00:46:19;101346.78;;;10.60;55.04
36234;BME280;43467;50.890;5.982;2023-05-03T00:48:47;101344.19;;;10.58;55.36
36234;BME280;43467;50.890;5.982;2023-05-03T00:51:14;101345.19;;;10.54;55.15
36234;BME280;43467;50.890;5.982;2023-05-03T00:53:41;101324.94;;;10.52;55.45
36234;BME280;43467;50.890;5.982;2023-05-03T00:56:06;101338.13;;;10.55;54.88
36234;BME280;43467;50.890;5.982;2023-05-03T00:58:33;101337.34;;;10.51;55.39
36234;BME280;43467;50.890;5.982;2023-05-03T01:01:01;101330.28;;;10.50;55.05
36234;BME280;43467;50.890;5.982;2023-05-03T01:03:26;101328.44;;;10.54;55.23
36234;BME280;43467;50.890;5.982;2023-05-03T01:06:02;101325.09;;;10.47;55.28
36234;BME280;43467;50.890;5.982;2023-05-03T01:08:36;101326.00;;;10.46;55.26
36234;BME280;43467;50.890;5.982;2023-05-03T01:11:15;101325.91;;;10.49;55.43
36234;BME280;43467;50.890;5.982;2023-05-03T01:14:15;101319.03;;;10.42;55.77
36234;BME280;43467;50.890;5.982;2023-05-03T01:16:50;101326.22;;;10.39;55.39
36234;BME280;43467;50.890;5.982;2023-05-03T01:19:27;101329.78;;;10.36;55.55
36234;BME280;43467;50.890;5.982;2023-05-03T01:22:07;101317.66;;;10.27;55.68
36234;BME280;43467;50.890;5.982;2023-05-03T01:24:35;101335.19;;;10.33;55.63
36234;BME280;43467;50.890;5.982;2023-05-03T01:27:02;101329.03;;;10.31;55.51
36234;BME280;43467;50.890;5.982;2023-05-03T01:29:28;101329.13;;;10.28;55.97
36234;BME280;43467;50.890;5.982;2023-05-03T01:31:59;101319.44;;;10.27;56.00
36234;BME280;43467;50.890;5.982;2023-05-03T01:34:49;101323.03;;;10.26;56.46
36234;BME280;43467;50.890;5.982;2023-05-03T01:37:16;101331.47;;;10.06;56.84
36234;BME280;43467;50.890;5.982;2023-05-03T01:39:48;101318.91;;;9.79;57.57
36234;BME280;43467;50.890;5.982;2023-05-03T01:42:16;101314.09;;;9.61;58.32
36234;BME280;43467;50.890;5.982;2023-05-03T01:44:42;101314.91;;;9.64;58.39
36234;BME280;43467;50.890;5.982;2023-05-03T01:47:08;101317.69;;;9.58;58.38
36234;BME280;43467;50.890;5.982;2023-05-03T01:49:35;101310.03;;;9.46;58.61
36234;BME280;43467;50.890;5.982;2023-05-03T01:52:00;101321.28;;;9.56;58.49
36234;BME280;43467;50.890;5.982;2023-05-03T01:54:26;101327.06;;;9.71;57.62
36234;BME280;43467;50.890;5.982;2023-05-03T01:56:51;101332.44;;;9.68;58.42
36234;BME280;43467;50.890;5.982;2023-05-03T01:59:17;101338.00;;;9.56;58.48
36234;BME280;43467;50.890;5.982;2023-05-03T02:01:42;101338.47;;;9.73;58.25
36234;BME280;43467;50.890;5.982;2023-05-03T02:04:07;101343.81;;;9.70;58.16
36234;BME280;43467;50.890;5.982;2023-05-03T02:06:33;101335.00;;;9.70;57.67
36234;BME280;43467;50.890;5.982;2023-05-03T02:08:58;101351.81;;;9.69;58.18
36234;BME280;43467;50.890;5.982;2023-05-03T02:11:24;101352.56;;;9.74;58.62
36234;BME280;43467;50.890;5.982;2023-05-03T02:13:49;101359.34;;;9.86;57.89
36234;BME280;43467;50.890;5.982;2023-05-03T02:16:16;101361.28;;;9.77;58.01
36234;BME280;43467;50.890;5.982;2023-05-03T02:18:42;101356.69;;;9.86;58.18
36234;BME280;43467;50.890;5.982;2023-05-03T02:21:08;101359.22;;;9.90;58.41
36234;BME280;43467;50.890;5.982;2023-05-03T02:23:34;101359.22;;;9.90;58.08
36234;BME280;43467;50.890;5.982;2023-05-03T02:26:01;101353.78;;;9.95;58.20
36234;BME280;43467;50.890;5.982;2023-05-03T02:28:26;101352.00;;;9.97;58.29
36234;BME280;43467;50.890;5.982;2023-05-03T02:30:51;101351.91;;;10.00;58.18
36234;BME280;43467;50.890;5.982;2023-05-03T02:33:17;101345.81;;;9.96;58.05
36234;BME280;43467;50.890;5.982;2023-05-03T02:35:42;101349.31;;;9.98;57.92
36234;BME280;43467;50.890;5.982;2023-05-03T02:38:08;101352.81;;;9.99;57.90
36234;BME280;43467;50.890;5.982;2023-05-03T02:40:33;101358.25;;;9.94;58.03
36234;BME280;43467;50.890;5.982;2023-05-03T02:42:59;101359.13;;;9.93;58.17
36234;BME280;43467;50.890;5.982;2023-05-03T02:45:24;101342.72;;;9.79;58.04
36234;BME280;43467;50.890;5.982;2023-05-03T02:47:50;101347.16;;;9.78;58.63
36234;BME280;43467;50.890;5.982;2023-05-03T02:50:15;101341.03;;;9.76;58.41
36234;BME280;43467;50.890;5.982;2023-05-03T02:52:41;101346.44;;;9.72;58.93
36234;BME280;43467;50.890;5.982;2023-05-03T02:55:06;101343.97;;;9.64;59.05
36234;BME280;43467;50.890;5.982;2023-05-03T02:57:32;101334.47;;;9.57;59.40
36234;BME280;43467;50.890;5.982;2023-05-03T02:59:58;101333.63;;;9.55;59.41
36234;BME280;43467;50.890;5.982;2023-05-03T03:02:23;101325.59;;;9.58;58.74
36234;BME280;43467;50.890;5.982;2023-05-03T03:04:48;101322.34;;;9.49;58.86
36234;BME280;43467;50.890;5.982;2023-05-03T03:07:14;101322.34;;;9.49;59.01
36234;BME280;43467;50.890;5.982;2023-05-03T03:09:39;101322.38;;;9.47;58.98
36234;BME280;43467;50.890;5.982;2023-05-03T03:12:05;101318.06;;;9.43;58.58
36234;BME280;43467;50.890;5.982;2023-05-03T03:14:30;101304.84;;;9.43;58.90
36234;BME280;43467;50.890;5.982;2023-05-03T03:16:57;101299.75;;;9.36;59.04
36234;BME280;43467;50.890;5.982;2023-05-03T03:19:22;101305.84;;;9.38;58.86
36234;BME280;43467;50.890;5.982;2023-05-03T03:21:47;101305.00;;;9.37;58.60
36234;BME280;43467;50.890;5.982;2023-05-03T03:24:13;101301.66;;;9.29;59.83
36234;BME280;43467;50.890;5.982;2023-05-03T03:26:40;101289.66;;;9.14;59.32
36234;BME280;43467;50.890;5.982;2023-05-03T03:29:05;101273.03;;;9.09;59.13
36234;BME280;43467;50.890;5.982;2023-05-03T03:31:31;101274.75;;;9.12;59.61
36234;BME280;43467;50.890;5.982;2023-05-03T03:33:56;101260.81;;;9.05;59.27
36234;BME280;43467;50.890;5.982;2023-05-03T03:36:21;101266.19;;;9.01;59.70
36234;BME280;43467;50.890;5.982;2023-05-03T03:38:47;101263.81;;;8.88;59.73
36234;BME280;43467;50.890;5.982;2023-05-03T03:41:12;101270.66;;;8.99;59.91
36234;BME280;43467;50.890;5.982;2023-05-03T03:43:38;101283.09;;;8.94;60.10
36234;BME280;43467;50.890;5.982;2023-05-03T03:46:03;101285.00;;;8.87;60.48
36234;BME280;43467;50.890;5.982;2023-05-03T03:48:29;101284.94;;;8.88;60.03
36234;BME280;43467;50.890;5.982;2023-05-03T03:50:54;101291.97;;;8.90;60.85
36234;BME280;43467;50.890;5.982;2023-05-03T03:53:20;101297.34;;;8.86;60.14
36234;BME280;43467;50.890;5.982;2023-05-03T03:55:45;101295.50;;;8.88;60.30
36234;BME280;43467;50.890;5.982;2023-05-03T03:58:11;101296.47;;;8.84;60.92
36234;BME280;43467;50.890;5.982;2023-05-03T04:00:37;101293.00;;;8.84;60.44
36234;BME280;43467;50.890;5.982;2023-05-03T04:03:03;101293.00;;;8.84;60.11
36234;BME280;43467;50.890;5.982;2023-05-03T04:05:30;101289.59;;;8.77;60.30
36234;BME280;43467;50.890;5.982;2023-05-03T04:07:56;101293.91;;;8.81;60.04
36234;BME280;43467;50.890;5.982;2023-05-03T04:10:21;101302.78;;;8.79;59.87
36234;BME280;43467;50.890;5.982;2023-05-03T04:12:47;101301.94;;;8.77;60.28
36234;BME280;43467;50.890;5.982;2023-05-03T04:15:12;101291.47;;;8.72;60.35
36234;BME280;43467;50.890;5.982;2023-05-03T04:17:37;101301.91;;;8.78;60.32
36234;BME280;43467;50.890;5.982;2023-05-03T04:20:03;101293.38;;;8.67;60.27
36234;BME280;43467;50.890;5.982;2023-05-03T04:22:32;101293.31;;;8.69;60.42
36234;BME280;43467;50.890;5.982;2023-05-03T04:24:57;101303.94;;;8.66;60.80
36234;BME280;43467;50.890;5.982;2023-05-03T04:27:25;101302.19;;;8.65;60.46
36234;BME280;43467;50.890;5.982;2023-05-03T04:29:51;101298.63;;;8.67;60.56
36234;BME280;43467;50.890;5.982;2023-05-03T04:32:16;101306.50;;;8.69;60.32
36234;BME280;43467;50.890;5.982;2023-05-03T04:34:50;101297.63;;;8.73;60.44
36234;BME280;43467;50.890;5.982;2023-05-03T04:37:17;101302.88;;;8.74;60.28
36234;BME280;43467;50.890;5.982;2023-05-03T04:39:44;101311.59;;;8.78;60.14
36234;BME280;43467;50.890;5.982;2023-05-03T04:42:10;101322.16;;;8.78;60.56
36234;BME280;43467;50.890;5.982;2023-05-03T04:44:37;101328.19;;;8.84;60.37
36234;BME280;43467;50.890;5.982;2023-05-03T04:47:03;101324.53;;;8.92;59.71
36234;BME280;43467;50.890;5.982;2023-05-03T04:49:28;101332.38;;;8.95;59.80
36234;BME280;43467;50.890;5.982;2023-05-03T04:51:53;101335.00;;;8.95;59.71
36234;BME280;43467;50.890;5.982;2023-05-03T04:54:19;101324.44;;;8.95;59.42
36234;BME280;43467;50.890;5.982;2023-05-03T04:56:44;101329.75;;;8.93;60.00
36234;BME280;43467;50.890;5.982;2023-05-03T04:59:10;101349.19;;;8.91;59.81
36234;BME280;43467;50.890;5.982;2023-05-03T05:01:36;101340.41;;;8.90;59.75
36234;BME280;43467;50.890;5.982;2023-05-03T05:04:02;101342.06;;;8.94;59.54
36234;BME280;43467;50.890;5.982;2023-05-03T05:06:27;101348.16;;;8.98;59.69
36234;BME280;43467;50.890;5.982;2023-05-03T05:08:52;101346.38;;;8.98;59.48
36234;BME280;43467;50.890;5.982;2023-05-03T05:11:18;101350.69;;;9.02;59.45
36234;BME280;43467;50.890;5.982;2023-05-03T05:13:45;101346.28;;;9.03;59.44
36234;BME280;43467;50.890;5.982;2023-05-03T05:16:10;101344.63;;;8.99;59.41
36234;BME280;43467;50.890;5.982;2023-05-03T05:18:36;101358.50;;;9.08;59.49
36234;BME280;43467;50.890;5.982;2023-05-03T05:21:02;101354.84;;;9.14;59.23
36234;BME280;43467;50.890;5.982;2023-05-03T05:23:27;101361.88;;;9.13;58.99
36234;BME280;43467;50.890;5.982;2023-05-03T05:25:53;101359.31;;;9.12;58.84
36234;BME280;43467;50.890;5.982;2023-05-03T05:28:18;101352.88;;;9.23;58.80
36234;BME280;43467;50.890;5.982;2023-05-03T05:30:44;101341.59;;;9.17;58.43
36234;BME280;43467;50.890;5.982;2023-05-03T05:33:09;101353.38;;;9.41;58.26
36234;BME280;43467;50.890;5.982;2023-05-03T05:35:35;101359.56;;;9.40;58.46
36234;BME280;43467;50.890;5.982;2023-05-03T05:38:00;101367.22;;;9.50;58.50
36234;BME280;43467;50.890;5.982;2023-05-03T05:40:26;101370.66;;;9.54;58.28
36234;BME280;43467;50.890;5.982;2023-05-03T05:42:51;101374.94;;;9.59;58.22
36234;BME280;43467;50.890;5.982;2023-05-03T05:45:17;101375.03;;;9.56;57.61
36234;BME280;43467;50.890;5.982;2023-05-03T05:47:42;101382.09;;;9.56;57.48
36234;BME280;43467;50.890;5.982;2023-05-03T05:50:08;101385.41;;;9.65;57.54
36234;BME280;43467;50.890;5.982;2023-05-03T05:52:33;101379.03;;;9.74;57.36
36234;BME280;43467;50.890;5.982;2023-05-03T05:54:59;101387.69;;;9.79;57.26
36234;BME280;43467;50.890;5.982;2023-05-03T05:57:24;101386.59;;;9.88;57.16
36234;BME280;43467;50.890;5.982;2023-05-03T05:59:50;101383.84;;;9.92;57.20
36234;BME280;43467;50.890;5.982;2023-05-03T06:02:16;101387.47;;;9.88;56.88
36234;BME280;43467;50.890;5.982;2023-05-03T06:04:41;101389.94;;;9.96;57.18
36234;BME280;43467;50.890;5.982;2023-05-03T06:07:07;101391.69;;;9.97;57.07
36234;BME280;43467;50.890;5.982;2023-05-03T06:09:33;101389.94;;;9.96;56.58
36234;BME280;43467;50.890;5.982;2023-05-03T06:11:58;101392.31;;;10.06;56.86
36234;BME280;43467;50.890;5.982;2023-05-03T06:14:23;101386.88;;;10.11;56.12
36234;BME280;43467;50.890;5.982;2023-05-03T06:16:49;101392.88;;;10.19;56.09
36234;BME280;43467;50.890;5.982;2023-05-03T06:19:15;101385.91;;;10.16;55.87
36234;BME280;43467;50.890;5.982;2023-05-03T06:21:40;101394.63;;;10.20;55.89
36234;BME280;43467;50.890;5.982;2023-05-03T06:24:05;101392.94;;;10.17;56.59
36234;BME280;43467;50.890;5.982;2023-05-03T06:26:31;101389.59;;;10.09;56.38
36234;BME280;43467;50.890;5.982;2023-05-03T06:28:56;101377.13;;;10.14;57.40
36234;BME280;43467;50.890;5.982;2023-05-03T06:31:22;101390.38;;;10.13;56.15
36234;BME280;43467;50.890;5.982;2023-05-03T06:33:47;101382.44;;;10.13;56.32
36234;BME280;43467;50.890;5.982;2023-05-03T06:36:12;101381.38;;;10.21;56.33
36234;BME280;43467;50.890;5.982;2023-05-03T06:38:38;101391.66;;;10.32;56.13
36234;BME280;43467;50.890;5.982;2023-05-03T06:41:03;101388.13;;;10.33;55.96
36234;BME280;43467;50.890;5.982;2023-05-03T06:43:29;101385.38;;;10.36;56.34
36234;BME280;43467;50.890;5.982;2023-05-03T06:45:54;101374.75;;;10.39;55.96
36234;BME280;43467;50.890;5.982;2023-05-03T06:48:20;101379.75;;;10.48;56.36
36234;BME280;43467;50.890;5.982;2023-05-03T06:50:46;101382.38;;;10.50;55.78
36234;BME280;43467;50.890;5.982;2023-05-03T06:53:11;101379.50;;;10.59;55.98
36234;BME280;43467;50.890;5.982;2023-05-03T06:55:36;101373.56;;;10.49;57.02
36234;BME280;43467;50.890;5.982;2023-05-03T06:58:02;101381.28;;;10.57;56.23
36234;BME280;43467;50.890;5.982;2023-05-03T07:00:27;101385.66;;;10.59;56.51
36234;BME280;43467;50.890;5.982;2023-05-03T07:02:53;101379.44;;;10.60;56.45
36234;BME280;43467;50.890;5.982;2023-05-03T07:05:19;101380.84;;;10.72;55.99
36234;BME280;43467;50.890;5.982;2023-05-03T07:07:44;101374.50;;;10.79;55.79
36234;BME280;43467;50.890;5.982;2023-05-03T07:10:10;101376.97;;;10.85;56.29
36234;BME280;43467;50.890;5.982;2023-05-03T07:12:35;101376.03;;;10.88;56.41
36234;BME280;43467;50.890;5.982;2023-05-03T07:15:01;101375.19;;;10.86;55.44
36234;BME280;43467;50.890;5.982;2023-05-03T07:17:26;101368.09;;;10.86;55.59
36234;BME280;43467;50.890;5.982;2023-05-03T07:19:52;101382.22;;;10.87;57.03
36234;BME280;43467;50.890;5.982;2023-05-03T07:22:17;101380.47;;;10.86;56.02
36234;BME280;43467;50.890;5.982;2023-05-03T07:24:45;101376.94;;;10.87;56.80
36234;BME280;43467;50.890;5.982;2023-05-03T07:27:12;101379.31;;;10.96;55.93
36234;BME280;43467;50.890;5.982;2023-05-03T07:29:37;101375.66;;;11.00;55.93
36234;BME280;43467;50.890;5.982;2023-05-03T07:32:03;101365.31;;;10.91;56.01
36234;BME280;43467;50.890;5.982;2023-05-03T07:34:28;101368.91;;;10.88;56.07
36234;BME280;43467;50.890;5.982;2023-05-03T07:36:54;101370.75;;;10.86;57.20
36234;BME280;43467;50.890;5.982;2023-05-03T07:39:20;101365.50;;;10.85;55.27
36234;BME280;43467;50.890;5.982;2023-05-03T07:41:45;101352.81;;;10.96;55.96
36234;BME280;43467;50.890;5.982;2023-05-03T07:44:11;101352.41;;;11.09;54.71
36234;BME280;43467;50.890;5.982;2023-05-03T07:46:36;101351.25;;;11.18;54.44
36234;BME280;43467;50.890;5.982;2023-05-03T07:49:03;101342.50;;;11.16;53.82
36234;BME280;43467;50.890;5.982;2023-05-03T07:51:28;101352.75;;;11.27;52.68
36234;BME280;43467;50.890;5.982;2023-05-03T07:53:54;101355.94;;;11.38;52.87
36234;BME280;43467;50.890;5.982;2023-05-03T07:56:21;101356.63;;;11.44;52.41
36234;BME280;43467;50.890;5.982;2023-05-03T07:58:46;101358.13;;;11.53;52.94
36234;BME280;43467;50.890;5.982;2023-05-03T08:01:12;101357.34;;;11.49;52.62
36234;BME280;43467;50.890;5.982;2023-05-03T08:03:37;101354.69;;;11.49;53.07
36234;BME280;43467;50.890;5.982;2023-05-03T08:06:03;101349.59;;;11.43;53.16
36234;BME280;43467;50.890;5.982;2023-05-03T08:08:28;101344.53;;;11.36;54.12
36234;BME280;43467;50.890;5.982;2023-05-03T08:10:56;101352.78;;;11.25;53.46
36234;BME280;43467;50.890;5.982;2023-05-03T08:13:21;101357.97;;;11.30;53.72
36234;BME280;43467;50.890;5.982;2023-05-03T08:15:48;101366.50;;;11.39;52.37
36234;BME280;43467;50.890;5.982;2023-05-03T08:18:13;101355.66;;;11.47;52.17
36234;BME280;43467;50.890;5.982;2023-05-03T08:20:39;101355.41;;;11.54;52.49
36234;BME280;43467;50.890;5.982;2023-05-03T08:23:04;101360.97;;;11.47;51.81
36234;BME280;43467;50.890;5.982;2023-05-03T08:25:30;101366.94;;;11.53;50.93
36234;BME280;43467;50.890;5.982;2023-05-03T08:27:55;101357.03;;;11.58;50.67
36234;BME280;43467;50.890;5.982;2023-05-03T08:30:21;101350.84;;;11.59;50.69
36234;BME280;43467;50.890;5.982;2023-05-03T08:32:47;101350.47;;;11.70;51.50
36234;BME280;43467;50.890;5.982;2023-05-03T08:35:12;101350.31;;;11.76;51.81
36234;BME280;43467;50.890;5.982;2023-05-03T08:37:42;101359.66;;;11.88;50.44
36234;BME280;43467;50.890;5.982;2023-05-03T08:40:09;101349.81;;;11.91;48.81
36234;BME280;43467;50.890;5.982;2023-05-03T08:42:44;101346.09;;;11.97;49.40
36234;BME280;43467;50.890;5.982;2023-05-03T08:45:12;101348.53;;;12.03;50.04
36234;BME280;43467;50.890;5.982;2023-05-03T08:47:39;101333.72;;;11.96;50.14
36234;BME280;43467;50.890;5.982;2023-05-03T08:50:07;101331.03;;;11.97;49.46
36234;BME280;43467;50.890;5.982;2023-05-03T08:52:33;101323.06;;;11.97;49.41
36234;BME280;43467;50.890;5.982;2023-05-03T08:54:59;101327.22;;;12.06;48.67
36234;BME280;43467;50.890;5.982;2023-05-03T08:57:26;101329.84;;;12.06;48.11
36234;BME280;43467;50.890;5.982;2023-05-03T08:59:52;101322.59;;;12.11;49.37
36234;BME280;43467;50.890;5.982;2023-05-03T09:02:21;101323.72;;;12.04;49.35
36234;BME280;43467;50.890;5.982;2023-05-03T09:04:46;101325.38;;;12.06;50.83
36234;BME280;43467;50.890;5.982;2023-05-03T09:07:12;101315.91;;;11.99;49.16
36234;BME280;43467;50.890;5.982;2023-05-03T09:09:40;101331.56;;;12.07;49.29
36234;BME280;43467;50.890;5.982;2023-05-03T09:12:05;101334.19;;;12.08;50.53
36234;BME280;43467;50.890;5.982;2023-05-03T09:14:41;101333.53;;;12.02;49.74
36234;BME280;43467;50.890;5.982;2023-05-03T09:17:17;101340.47;;;12.06;49.36
36234;BME280;43467;50.890;5.982;2023-05-03T09:19:52;101341.09;;;12.14;48.23
36234;BME280;43467;50.890;5.982;2023-05-03T09:22:18;101335.50;;;12.22;48.27
36234;BME280;43467;50.890;5.982;2023-05-03T09:24:58;101328.41;;;12.22;49.31
36234;BME280;43467;50.890;5.982;2023-05-03T09:27:24;101331.00;;;12.24;48.62
36234;BME280;43467;50.890;5.982;2023-05-03T09:29:50;101332.78;;;12.23;49.25
36234;BME280;43467;50.890;5.982;2023-05-03T09:32:17;101311.34;;;12.29;48.92
36234;BME280;43467;50.890;5.982;2023-05-03T09:34:43;101315.88;;;12.26;48.51
36234;BME280;43467;50.890;5.982;2023-05-03T09:37:10;101307.84;;;12.27;49.22
36234;BME280;43467;50.890;5.982;2023-05-03T09:39:36;101304.28;;;12.28;48.51
36234;BME280;43467;50.890;5.982;2023-05-03T09:42:12;101300.47;;;12.35;49.32
36234;BME280;43467;50.890;5.982;2023-05-03T09:44:46;101290.88;;;12.31;49.80
36234;BME280;43467;50.890;5.982;2023-05-03T09:47:18;101302.16;;;12.38;49.26
36234;BME280;43467;50.890;5.982;2023-05-03T09:49:44;101300.59;;;12.32;49.49
36234;BME280;43467;50.890;5.982;2023-05-03T09:52:09;101297.13;;;12.30;48.74
36234;BME280;43467;50.890;5.982;2023-05-03T09:54:35;101290.78;;;12.34;49.30
36234;BME280;43467;50.890;5.982;2023-05-03T09:57:03;101294.31;;;12.35;48.75
36234;BME280;43467;50.890;5.982;2023-05-03T09:59:29;101299.63;;;12.35;47.89
36234;BME280;43467;50.890;5.982;2023-05-03T10:01:56;101309.38;;;12.34;48.30
36234;BME280;43467;50.890;5.982;2023-05-03T10:04:27;101303.03;;;12.38;47.84
36234;BME280;43467;50.890;5.982;2023-05-03T10:06:58;101302.59;;;12.50;48.60
36234;BME280;43467;50.890;5.982;2023-05-03T10:09:35;101309.28;;;12.61;47.77
36234;BME280;43467;50.890;5.982;2023-05-03T10:12:06;101316.09;;;12.68;47.43
36234;BME280;43467;50.890;5.982;2023-05-03T10:14:32;101299.06;;;12.73;47.46
36234;BME280;43467;50.890;5.982;2023-05-03T10:17:13;101301.53;;;12.79;47.94
36234;BME280;43467;50.890;5.982;2023-05-03T10:19:59;101299.94;;;12.74;46.85
36234;BME280;43467;50.890;5.982;2023-05-03T10:22:31;101305.78;;;12.83;49.40
36234;BME280;43467;50.890;5.982;2023-05-03T10:30:39;101293.25;;;13.10;46.91
36234;BME280;43467;50.890;5.982;2023-05-03T10:35:49;101278.78;;;12.94;47.40
36234;BME280;43467;50.890;5.982;2023-05-03T10:38:21;101281.31;;;12.97;45.94
36234;BME280;43467;50.890;5.982;2023-05-03T10:40:47;101273.03;;;13.04;47.02
36234;BME280;43467;50.890;5.982;2023-05-03T10:46:04;101278.59;;;13.22;46.42
36234;BME280;43467;50.890;5.982;2023-05-03T10:48:31;101266.03;;;13.25;44.39
36234;BME280;43467;50.890;5.982;2023-05-03T10:53:54;101259.25;;;13.18;43.88
36234;BME280;43467;50.890;5.982;2023-05-03T10:56:20;101272.03;;;13.30;44.27
36234;BME280;43467;50.890;5.982;2023-05-03T10:58:47;101265.72;;;13.33;44.46
36234;BME280;43467;50.890;5.982;2023-05-03T11:01:17;101267.28;;;13.38;44.41
36234;BME280;43467;50.890;5.982;2023-05-03T11:04:03;101267.03;;;13.44;46.06
36234;BME280;43467;50.890;5.982;2023-05-03T11:06:36;101266.19;;;13.44;46.24
36234;BME280;43467;50.890;5.982;2023-05-03T11:09:07;101264.16;;;13.49;45.61
36234;BME280;43467;50.890;5.982;2023-05-03T11:11:35;101267.69;;;13.49;44.35
36234;BME280;43467;50.890;5.982;2023-05-03T11:14:01;101265.13;;;13.48;45.22
36234;BME280;43467;50.890;5.982;2023-05-03T11:16:27;101258.47;;;13.58;45.28
36234;BME280;43467;50.890;5.982;2023-05-03T11:18:53;101249.50;;;13.61;44.59
36234;BME280;43467;50.890;5.982;2023-05-03T11:21:19;101244.19;;;13.61;44.91
36234;BME280;43467;50.890;5.982;2023-05-03T11:23:45;101245.91;;;13.62;43.75
36234;BME280;43467;50.890;5.982;2023-05-03T11:26:12;101234.59;;;13.57;45.20
36234;BME280;43467;50.890;5.982;2023-05-03T11:28:38;101253.31;;;13.75;45.74
36234;BME280;43467;50.890;5.982;2023-05-03T11:31:04;101246.06;;;13.79;44.04
36234;BME280;43467;50.890;5.982;2023-05-03T11:33:31;101242.88;;;13.91;45.09
36234;BME280;43467;50.890;5.982;2023-05-03T11:36:00;101239.81;;;14.00;45.73
36234;BME280;43467;50.890;5.982;2023-05-03T11:38:26;101238.59;;;14.07;44.73
36234;BME280;43467;50.890;5.982;2023-05-03T11:40:51;101217.69;;;13.98;44.28
36234;BME280;43467;50.890;5.982;2023-05-03T11:43:16;101231.09;;;14.17;46.15
36234;BME280;43467;50.890;5.982;2023-05-03T11:45:46;101229.09;;;14.22;44.98
36234;BME280;43467;50.890;5.982;2023-05-03T11:48:14;101231.66;;;14.23;44.85
36234;BME280;43467;50.890;5.982;2023-05-03T11:50:48;101220.06;;;14.24;45.50
36234;BME280;43467;50.890;5.982;2023-05-03T11:53:16;101217.16;;;14.30;45.69
36234;BME280;43467;50.890;5.982;2023-05-03T11:55:43;101220.53;;;14.34;44.00
36234;BME280;43467;50.890;5.982;2023-05-03T11:58:19;101220.78;;;14.48;43.26
36234;BME280;43467;50.890;5.982;2023-05-03T12:00:52;101210.94;;;14.50;45.45
36234;BME280;43467;50.890;5.982;2023-05-03T12:03:25;101206.31;;;14.54;45.73
36234;BME280;43467;50.890;5.982;2023-05-03T12:05:51;101209.66;;;14.59;45.10
36234;BME280;43467;50.890;5.982;2023-05-03T12:08:21;101208.41;;;14.66;45.37
36234;BME280;43467;50.890;5.982;2023-05-03T12:10:49;101213.16;;;14.78;43.17
36234;BME280;43467;50.890;5.982;2023-05-03T12:13:26;101208.91;;;14.93;43.01
36234;BME280;43467;50.890;5.982;2023-05-03T12:15:56;101201.31;;;15.02;43.73
36234;BME280;43467;50.890;5.982;2023-05-03T12:18:23;101205.56;;;15.06;43.14
36234;BME280;43467;50.890;5.982;2023-05-03T12:20:54;101202.59;;;15.12;42.13
36234;BME280;43467;50.890;5.982;2023-05-03T12:23:22;101196.03;;;15.19;43.47
36234;BME280;43467;50.890;5.982;2023-05-03T12:25:47;101199.91;;;15.31;44.06
36234;BME280;43467;50.890;5.982;2023-05-03T12:28:14;101196.91;;;15.37;43.46
36234;BME280;43467;50.890;5.982;2023-05-03T12:30:41;101200.06;;;15.45;43.55
36234;BME280;43467;50.890;5.982;2023-05-03T12:33:06;101189.03;;;15.53;43.85
36234;BME280;43467;50.890;5.982;2023-05-03T12:35:32;101189.81;;;15.55;43.06
36234;BME280;43467;50.890;5.982;2023-05-03T12:37:57;101185.13;;;15.60;42.38
36234;BME280;43467;50.890;5.982;2023-05-03T12:40:23;101185.56;;;15.51;42.38
36234;BME280;43467;50.890;5.982;2023-05-03T12:42:52;101175.59;;;15.54;42.08
36234;BME280;43467;50.890;5.982;2023-05-03T12:45:18;101177.88;;;15.62;43.31
36234;BME280;43467;50.890;5.982;2023-05-03T12:47:44;101186.03;;;15.59;41.94
36234;BME280;43467;50.890;5.982;2023-05-03T12:50:09;101173.41;;;15.62;42.18
36234;BME280;43467;50.890;5.982;2023-05-03T12:52:35;101179.16;;;15.72;42.83
36234;BME280;43467;50.890;5.982;2023-05-03T12:55:02;101171.59;;;15.80;42.11
36234;BME280;43467;50.890;5.982;2023-05-03T12:57:28;101174.91;;;15.85;41.78
36234;BME280;43467;50.890;5.982;2023-05-03T12:59:55;101166.47;;;15.93;40.84
36234;BME280;43467;50.890;5.982;2023-05-03T13:02:21;101173.16;;;16.01;40.86
36234;BME280;43467;50.890;5.982;2023-05-03T13:04:47;101162.75;;;15.95;41.27